Time;durP1;ratioP1;P1;durP2;ratioP2;P2;SDS_P1;SDS_P2;PMS_P1;PMS_P2;Temp;Humidity;BMP_temperature;BMP_pressure;BME280_temperature;BME280_humidity;BME280_pressure;Samples;Min_cycle;Max_cycle;Signal;HPM_P1;HPM_P2
2022/03/07 00:00:43;;;;;;;13.23;6.22;;;-3.50;99.90;;;;;;4932064;29;20051;-90
2022/03/07 00:03:09;;;;;;;11.00;4.88;;;-2.90;99.90;;;;;;4930723;29;20039;-92
2022/03/07 00:05:35;;;;;;;10.55;4.35;;;-2.90;99.90;;;;;;4946288;29;20381;-92
2022/03/07 00:08:00;;;;;;;13.77;6.00;;;-2.80;99.90;;;;;;4946195;29;20046;-84
2022/03/07 00:10:26;;;;;;;8.43;4.40;;;-2.80;99.90;;;;;;4930118;29;20028;-81
2022/03/07 00:12:52;;;;;;;13.20;5.53;;;-3.60;99.90;;;;;;4929555;29;20099;-82
2022/03/07 00:15:17;;;;;;;15.40;6.10;;;-2.70;99.90;;;;;;4929967;29;20023;-86
2022/03/07 00:17:43;;;;;;;12.57;4.82;;;-2.90;99.90;;;;;;4931340;29;20395;-86
2022/03/07 00:20:09;;;;;;;12.98;6.05;;;-3.00;99.90;;;;;;4945257;29;20047;-83
2022/03/07 00:22:35;;;;;;;15.07;6.13;;;-3.80;99.90;;;;;;4930902;29;20079;-83
2022/03/07 00:25:01;;;;;;;13.85;5.50;;;-3.00;99.90;;;;;;4929876;29;20126;-82
2022/03/07 00:27:26;;;;;;;10.88;5.10;;;-3.50;99.90;;;;;;4929907;29;20035;-90
2022/03/07 00:29:52;;;;;;;17.35;5.85;;;-3.00;99.90;;;;;;4930896;29;20560;-88
2022/03/07 00:32:18;;;;;;;13.05;6.18;;;-3.50;99.90;;;;;;4945527;29;20079;-82
2022/03/07 00:34:43;;;;;;;13.10;5.53;;;-2.30;99.90;;;;;;4929645;29;20040;-83
2022/03/07 00:37:09;;;;;;;12.75;5.57;;;-3.80;99.90;;;;;;4945230;28;20484;-81
2022/03/07 00:39:35;;;;;;;15.73;6.07;;;-3.70;99.90;;;;;;4945320;29;20027;-85
2022/03/07 00:42:00;;;;;;;16.77;6.85;;;-3.40;99.90;;;;;;4945377;29;20311;-82
2022/03/07 00:44:26;;;;;;;12.45;5.47;;;-3.80;99.90;;;;;;4945303;29;20078;-87
2022/03/07 00:46:52;;;;;;;9.02;5.30;;;-2.70;99.90;;;;;;4929330;29;20122;-81
2022/03/07 00:49:17;;;;;;;10.02;5.78;;;-2.90;99.90;;;;;;4944883;29;20047;-84
2022/03/07 00:51:43;;;;;;;13.75;6.85;;;-3.30;99.90;;;;;;4945299;29;20150;-83
2022/03/07 00:54:10;;;;;;;13.38;5.82;;;-4.00;99.90;;;;;;4930419;29;20392;-82
2022/03/07 00:56:36;;;;;;;9.60;5.05;;;-3.20;99.90;;;;;;4929625;29;20039;-82
2022/03/07 00:59:02;;;;;;;17.25;5.55;;;-4.10;99.90;;;;;;4944702;29;20090;-82
2022/03/07 01:01:27;;;;;;;12.90;6.15;;;-2.80;99.90;;;;;;4930198;29;20024;-86
2022/03/07 01:03:53;;;;;;;14.13;6.10;;;-3.40;99.90;;;;;;4935924;29;20542;-83
2022/03/07 01:06:19;;;;;;;13.52;5.40;;;-2.80;99.90;;;;;;4930169;29;20023;-85
2022/03/07 01:08:45;;;;;;;14.07;6.13;;;-4.00;99.90;;;;;;4929769;29;20051;-83
2022/03/07 01:11:11;;;;;;;17.23;5.60;;;-4.00;99.90;;;;;;4944778;29;20037;-82
2022/03/07 01:13:38;;;;;;;12.93;5.38;;;-2.90;99.90;;;;;;4944569;29;20477;-80
2022/03/07 01:16:04;;;;;;;12.95;5.50;;;-3.90;99.90;;;;;;4944471;29;20035;-83
2022/03/07 01:18:29;;;;;;;16.50;5.70;;;-3.90;99.90;;;;;;4944865;29;20035;-84
2022/03/07 01:20:55;;;;;;;12.85;5.38;;;-3.40;99.90;;;;;;4944721;29;20723;-82
2022/03/07 01:23:21;;;;;;;14.10;6.72;;;-3.00;99.90;;;;;;4943850;28;20043;-81
2022/03/07 01:25:46;;;;;;;12.40;4.82;;;-3.10;99.90;;;;;;4943646;29;20028;-87
2022/03/07 01:28:12;;;;;;;13.70;6.47;;;-3.60;99.90;;;;;;4943724;29;20306;-82
2022/03/07 01:30:38;;;;;;;14.02;5.47;;;-3.00;99.90;;;;;;4943834;29;20023;-83
2022/03/07 01:33:03;;;;;;;9.50;5.63;;;-3.30;99.90;;;;;;4943837;29;20067;-82
2022/03/07 01:35:29;;;;;;;13.48;5.60;;;-3.50;99.90;;;;;;4943799;29;20111;-82
2022/03/07 01:37:55;;;;;;;12.73;5.57;;;-3.40;99.90;;;;;;4927582;29;20031;-83
2022/03/07 01:40:21;;;;;;;10.35;4.72;;;-4.00;99.90;;;;;;4943588;29;20031;-83
2022/03/07 01:42:46;;;;;;;9.73;4.82;;;-3.00;99.90;;;;;;4943543;29;20034;-83
2022/03/07 01:45:17;;;;;;;15.07;6.20;;;-3.80;99.90;;;;;;4928674;29;20064;-82
2022/03/07 01:47:44;;;;;;;15.32;6.35;;;-4.60;99.90;;;;;;4943730;29;20088;-83
2022/03/07 01:50:14;;;;;;;10.95;5.68;;;-3.20;99.90;;;;;;4945751;29;20456;-81
2022/03/07 01:52:44;;;;;;;10.32;5.47;;;-3.50;99.90;;;;;;4932333;29;20131;-87
2022/03/07 01:55:11;;;;;;;15.65;6.70;;;-2.80;99.90;;;;;;4946954;29;20123;-83
2022/03/07 01:57:39;;;;;;;14.93;5.13;;;-3.10;99.90;;;;;;4946510;28;20039;-83
2022/03/07 02:00:08;;;;;;;12.60;5.25;;;-3.70;99.90;;;;;;4947164;29;20421;-84
2022/03/07 02:02:34;;;;;;;9.93;4.38;;;-4.60;99.90;;;;;;4945556;29;20472;-83
2022/03/07 02:05:03;;;;;;;18.05;5.45;;;-4.60;99.90;;;;;;4927127;29;20087;-82
2022/03/07 02:07:28;;;;;;;12.50;5.82;;;-4.80;99.90;;;;;;4912951;29;20047;-82
2022/03/07 02:09:55;;;;;;;16.40;5.85;;;-4.80;99.90;;;;;;4927613;29;20481;-82
2022/03/07 02:12:20;;;;;;;12.20;5.55;;;-3.50;99.90;;;;;;4927548;29;20480;-85
2022/03/07 02:14:46;;;;;;;11.40;4.80;;;-3.70;99.90;;;;;;4913350;29;20330;-83
2022/03/07 02:17:12;;;;;;;13.93;5.85;;;-4.80;99.90;;;;;;4927842;29;20127;-81
2022/03/07 02:19:37;;;;;;;10.65;4.78;;;-5.00;99.90;;;;;;4927449;29;20036;-86
2022/03/07 02:22:04;;;;;;;11.32;5.18;;;-3.30;99.90;;;;;;4875239;29;1536974;-90
2022/03/07 02:24:30;;;;;;;12.32;4.85;;;-5.00;99.90;;;;;;4913934;29;20114;-87
2022/03/07 02:27:02;;;;;;;15.25;5.30;;;-3.90;99.90;;;;;;4913513;29;20489;-81
2022/03/07 02:29:28;;;;;;;11.38;5.63;;;-5.20;99.90;;;;;;4928755;29;20044;-89
2022/03/07 02:31:54;;;;;;;17.15;6.50;;;-5.40;99.90;;;;;;4928674;29;20047;-91
2022/03/07 02:34:20;;;;;;;15.57;6.50;;;-5.40;99.90;;;;;;4928289;29;20032;-87
2022/03/07 02:36:46;;;;;;;13.05;4.65;;;-5.40;99.90;;;;;;4913958;29;20381;-84
2022/03/07 02:39:12;;;;;;;12.70;5.65;;;-4.20;99.90;;;;;;4928723;29;20083;-84
2022/03/07 02:41:39;;;;;;;14.70;5.40;;;-3.80;99.90;;;;;;4928769;29;20043;-85
2022/03/07 02:44:05;;;;;;;10.63;4.97;;;-5.00;99.90;;;;;;4929578;29;20034;-82
2022/03/07 02:46:31;;;;;;;12.77;5.05;;;-3.40;99.90;;;;;;4947666;29;20031;-82
2022/03/07 02:48:56;;;;;;;10.35;5.05;;;-4.00;99.90;;;;;;4948994;29;20027;-82
2022/03/07 02:51:22;;;;;;;13.48;6.20;;;-5.30;99.90;;;;;;4950343;29;20032;-84
2022/03/07 02:53:49;;;;;;;15.38;6.00;;;-4.10;99.90;;;;;;4946010;29;20508;-83
2022/03/07 02:56:15;;;;;;;18.30;6.85;;;-3.30;99.90;;;;;;4932984;29;20112;-83
2022/03/07 02:58:41;;;;;;;14.07;5.80;;;-3.70;99.90;;;;;;4944847;29;20064;-82
2022/03/07 03:01:07;;;;;;;14.63;5.82;;;-3.10;99.90;;;;;;4915961;29;20036;-83
2022/03/07 03:03:33;;;;;;;12.93;5.85;;;-5.30;99.90;;;;;;4927951;29;20028;-82
2022/03/07 03:05:59;;;;;;;13.43;5.85;;;-3.60;99.90;;;;;;4934206;29;20043;-83
2022/03/07 03:08:25;;;;;;;11.00;4.78;;;-3.30;99.90;;;;;;4934822;29;20028;-83
2022/03/07 03:10:53;;;;;;;13.02;5.97;;;-4.90;99.90;;;;;;4933809;29;20031;-86
2022/03/07 03:13:22;;;;;;;14.10;5.70;;;-4.10;99.90;;;;;;4933600;29;20087;-82
2022/03/07 03:15:49;;;;;;;13.10;5.32;;;-3.20;99.90;;;;;;4933852;29;20050;-83
2022/03/07 03:18:16;;;;;;;13.50;5.63;;;-5.40;99.90;;;;;;4934876;29;20106;-82
2022/03/07 03:20:42;;;;;;;11.93;5.15;;;-4.20;99.90;;;;;;4935329;29;20023;-81
2022/03/07 03:23:08;;;;;;;13.93;5.32;;;-3.90;99.90;;;;;;4925003;29;20052;-82
2022/03/07 03:25:34;;;;;;;9.52;5.13;;;-3.30;99.90;;;;;;4914413;29;20119;-82
2022/03/07 03:28:00;;;;;;;13.10;5.82;;;-3.20;99.90;;;;;;4915811;29;20124;-83
2022/03/07 03:30:25;;;;;;;17.70;6.15;;;-5.50;99.90;;;;;;4914691;29;20401;-83
2022/03/07 03:32:51;;;;;;;17.40;5.45;;;-3.80;99.90;;;;;;4915603;29;20049;-83
2022/03/07 03:35:17;;;;;;;13.98;6.20;;;-3.00;99.90;;;;;;4914168;29;20107;-81
2022/03/07 03:37:42;;;;;;;16.30;6.15;;;-3.40;99.90;;;;;;4914553;29;20433;-82
2022/03/07 03:40:10;;;;;;;12.95;5.30;;;-3.40;99.90;;;;;;4917638;29;20313;-82
2022/03/07 03:42:36;;;;;;;11.48;5.35;;;-5.50;99.90;;;;;;4933367;29;20039;-82
2022/03/07 03:45:05;;;;;;;12.20;5.13;;;-4.60;99.90;;;;;;4926056;29;20025;-81
2022/03/07 03:47:32;;;;;;;15.43;5.75;;;-5.50;99.90;;;;;;4919055;29;20044;-81
2022/03/07 03:49:58;;;;;;;12.05;5.82;;;-5.50;99.90;;;;;;4918626;29;20029;-81
2022/03/07 03:52:24;;;;;;;14.27;6.15;;;-5.60;99.90;;;;;;4932923;29;20042;-84
2022/03/07 03:54:50;;;;;;;13.15;6.53;;;-5.80;99.90;;;;;;4925550;29;20028;-83
2022/03/07 03:57:16;;;;;;;12.35;5.82;;;-5.80;99.90;;;;;;4922039;29;20122;-84
2022/03/07 03:59:42;;;;;;;15.10;6.07;;;-5.80;99.90;;;;;;4921967;29;20115;-83
2022/03/07 04:02:07;;;;;;;9.52;5.05;;;-5.80;99.90;;;;;;4914118;29;20028;-83
2022/03/07 04:04:33;;;;;;;12.77;5.95;;;-5.80;99.90;;;;;;4931889;29;20381;-83
2022/03/07 04:06:59;;;;;;;12.93;5.50;;;-5.80;99.90;;;;;;4932262;29;20366;-84
2022/03/07 04:09:25;;;;;;;10.70;5.32;;;-5.20;99.90;;;;;;4914005;29;20028;-84
2022/03/07 04:11:51;;;;;;;9.38;4.35;;;-3.80;99.90;;;;;;4913268;29;20044;-85
2022/03/07 04:14:17;;;;;;;14.80;5.78;;;-3.90;99.90;;;;;;4928697;29;20392;-82
2022/03/07 04:16:43;;;;;;;14.40;5.15;;;-3.70;99.90;;;;;;4920759;29;20032;-84
2022/03/07 04:19:11;;;;;;;14.13;5.25;;;-5.90;99.90;;;;;;4920163;29;20060;-83
2022/03/07 04:21:41;;;;;;;10.02;5.80;;;-4.40;99.90;;;;;;4928347;29;20394;-83
2022/03/07 04:24:09;;;;;;;13.20;5.78;;;-3.50;99.90;;;;;;4918706;29;20349;-83
2022/03/07 04:26:35;;;;;;;17.13;5.30;;;-5.80;99.90;;;;;;4919391;29;20144;-86
2022/03/07 04:29:03;;;;;;;14.05;6.85;;;-5.80;99.90;;;;;;4911853;29;20079;-85
2022/03/07 04:31:29;;;;;;;18.67;6.07;;;-5.80;99.90;;;;;;4921378;29;20038;-83
2022/03/07 04:33:54;;;;;;;11.18;5.25;;;-5.60;99.90;;;;;;4924042;29;20035;-84
2022/03/07 04:36:20;;;;;;;13.85;6.22;;;-5.60;99.90;;;;;;4916638;29;20344;-83
2022/03/07 04:38:46;;;;;;;19.52;6.60;;;-5.50;99.90;;;;;;4929843;29;20024;-86
2022/03/07 04:41:12;;;;;;;16.45;5.40;;;-3.70;99.90;;;;;;4928524;29;20480;-82
2022/03/07 04:43:38;;;;;;;13.73;5.93;;;-5.60;99.90;;;;;;4931825;29;20023;-82
2022/03/07 04:46:04;;;;;;;19.35;6.68;;;-3.40;99.90;;;;;;4932271;29;20027;-83
2022/03/07 04:48:30;;;;;;;15.32;5.65;;;-5.60;99.90;;;;;;4932155;29;20078;-86
2022/03/07 04:50:56;;;;;;;12.70;6.35;;;-5.80;99.90;;;;;;4932353;29;20507;-82
2022/03/07 04:53:22;;;;;;;11.38;5.75;;;-4.70;99.90;;;;;;4924501;29;20032;-83
2022/03/07 04:55:47;;;;;;;11.75;6.20;;;-4.30;99.90;;;;;;4932079;29;20122;-83
2022/03/07 04:58:13;;;;;;;14.27;5.38;;;-3.90;99.90;;;;;;4932165;29;20102;-83
2022/03/07 05:00:39;;;;;;;9.77;4.78;;;-6.00;99.90;;;;;;4924007;29;20374;-84
2022/03/07 05:03:05;;;;;;;12.82;5.88;;;-6.10;99.90;;;;;;4919989;29;20473;-85
2022/03/07 05:05:31;;;;;;;15.40;5.68;;;-3.90;99.90;;;;;;4922146;29;20453;-83
2022/03/07 05:07:56;;;;;;;21.00;6.05;;;-6.10;99.90;;;;;;4932423;29;20051;-83
2022/03/07 05:10:22;;;;;;;14.40;6.53;;;-6.20;99.90;;;;;;4932318;29;20362;-85
2022/03/07 05:12:48;;;;;;;13.68;6.07;;;-6.30;99.90;;;;;;4925275;29;20039;-83
2022/03/07 05:15:14;;;;;;;17.80;6.28;;;-4.30;99.90;;;;;;4931621;29;20357;-82
2022/03/07 05:17:46;;;;;;;16.10;6.10;;;-6.30;99.90;;;;;;4932971;29;20027;-82
2022/03/07 05:20:14;;;;;;;16.48;7.93;;;-6.20;99.90;;;;;;4926640;29;20115;-84
2022/03/07 05:22:40;;;;;;;15.05;6.65;;;-6.20;99.90;;;;;;4914931;29;20071;-83
2022/03/07 05:25:06;;;;;;;12.52;5.57;;;-6.20;99.90;;;;;;4913926;29;20430;-82
2022/03/07 05:27:32;;;;;;;15.32;6.32;;;-6.20;99.90;;;;;;4915179;29;20028;-85
2022/03/07 05:29:58;;;;;;;15.25;6.18;;;-6.30;99.90;;;;;;4914493;29;20024;-85
2022/03/07 05:32:24;;;;;;;13.35;6.53;;;-6.40;99.90;;;;;;4914174;29;20484;-83
2022/03/07 05:34:49;;;;;;;17.45;6.28;;;-6.60;99.90;;;;;;4913752;29;20040;-83
2022/03/07 05:37:15;;;;;;;16.50;6.22;;;-4.70;99.90;;;;;;4913983;29;20500;-83
2022/03/07 05:39:41;;;;;;;16.63;7.07;;;-6.80;99.90;;;;;;4915197;29;20036;-83
2022/03/07 05:42:07;;;;;;;14.88;6.93;;;-6.40;99.90;;;;;;4914021;29;20492;-82
2022/03/07 05:44:33;;;;;;;21.17;7.00;;;-6.40;99.90;;;;;;4914175;29;20147;-86
2022/03/07 05:46:59;;;;;;;14.38;6.05;;;-6.40;99.90;;;;;;4918203;29;20106;-83
2022/03/07 05:49:25;;;;;;;10.10;4.53;;;-6.50;99.90;;;;;;4934266;29;20038;-81
2022/03/07 05:51:51;;;;;;;12.85;5.50;;;-5.10;99.90;;;;;;4948993;28;20042;-83
2022/03/07 05:54:17;;;;;;;15.82;5.90;;;-6.60;99.90;;;;;;4948639;29;20035;-83
2022/03/07 05:56:42;;;;;;;13.43;5.65;;;-6.60;99.90;;;;;;4948760;29;20028;-83
2022/03/07 05:59:08;;;;;;;12.45;5.25;;;-6.60;99.90;;;;;;4933829;29;20044;-81
2022/03/07 06:01:34;;;;;;;14.40;6.47;;;-6.70;99.90;;;;;;4948348;29;20162;-83
2022/03/07 06:04:00;;;;;;;13.25;5.72;;;-4.90;99.90;;;;;;4948175;29;20078;-79
2022/03/07 06:06:26;;;;;;;10.57;4.50;;;-4.40;99.90;;;;;;4948416;29;20074;-81
2022/03/07 06:08:51;;;;;;;12.32;6.50;;;-4.70;99.90;;;;;;4933642;29;20039;-82
2022/03/07 06:11:17;;;;;;;15.35;7.68;;;-7.90;99.90;;;;;;4947853;29;20039;-80
2022/03/07 06:13:43;;;;;;;15.98;8.20;;;-4.70;99.90;;;;;;4947632;29;20137;-82
2022/03/07 06:16:09;;;;;;;12.57;5.53;;;-5.00;99.90;;;;;;4932961;29;20397;-82
2022/03/07 06:18:35;;;;;;;20.63;5.32;;;-6.60;99.90;;;;;;4947835;29;20034;-82
2022/03/07 06:21:02;;;;;;;13.70;5.57;;;-6.70;99.90;;;;;;4933383;29;20028;-82
2022/03/07 06:23:28;;;;;;;12.10;5.63;;;-6.80;99.90;;;;;;4933075;29;20082;-81
2022/03/07 06:25:53;;;;;;;15.02;6.00;;;-6.60;99.90;;;;;;4933104;29;20605;-81
2022/03/07 06:28:19;;;;;;;14.15;7.95;;;-6.30;99.90;;;;;;4948387;29;20395;-79
2022/03/07 06:30:48;;;;;;;13.35;5.95;;;-4.00;99.90;;;;;;4947553;29;20024;-83
2022/03/07 06:33:16;;;;;;;12.63;6.47;;;-5.80;99.90;;;;;;4932972;29;20032;-82
2022/03/07 06:35:43;;;;;;;11.75;5.63;;;-6.10;99.90;;;;;;4950223;28;20122;-83
2022/03/07 06:38:09;;;;;;;16.20;5.45;;;-4.80;99.90;;;;;;4938001;29;20034;-84
2022/03/07 06:40:35;;;;;;;17.02;6.60;;;-6.20;99.90;;;;;;4954129;29;20027;-88
2022/03/07 06:43:01;;;;;;;15.85;8.07;;;-7.00;99.90;;;;;;4947564;29;20667;-81
2022/03/07 06:45:31;;;;;;;17.33;7.07;;;-6.00;99.90;;;;;;4936073;29;20055;-85
2022/03/07 06:47:57;;;;;;;17.58;6.85;;;-5.90;99.90;;;;;;4933011;29;20485;-88
2022/03/07 06:50:23;;;;;;;13.10;7.10;;;-3.70;99.90;;;;;;4924401;29;20070;-86
2022/03/07 06:52:49;;;;;;;12.60;5.78;;;-5.10;99.90;;;;;;4935405;29;20113;-84
2022/03/07 06:55:15;;;;;;;20.33;6.60;;;-3.50;99.90;;;;;;4946373;29;20441;-85
2022/03/07 06:57:42;;;;;;;15.60;6.97;;;-3.30;99.90;;;;;;4945526;29;20263;-83
2022/03/07 07:00:13;;;;;;;15.15;7.03;;;-3.40;99.90;;;;;;4940433;29;20043;-81
2022/03/07 07:02:40;;;;;;;14.20;7.13;;;-5.30;99.90;;;;;;4934877;29;20020;-83
2022/03/07 07:05:07;;;;;;;13.98;6.35;;;-5.00;99.90;;;;;;4934351;29;20507;-84
2022/03/07 07:07:34;;;;;;;13.93;6.40;;;-4.60;99.90;;;;;;4935538;29;20015;-84
2022/03/07 07:09:59;;;;;;;15.15;5.93;;;-4.30;99.90;;;;;;4938306;29;20032;-82
2022/03/07 07:12:25;;;;;;;15.05;7.40;;;-3.70;99.90;;;;;;4940481;29;20091;-82
2022/03/07 07:14:51;;;;;;;16.27;7.80;;;-3.90;99.90;;;;;;4941109;29;20043;-82
2022/03/07 07:17:17;;;;;;;17.70;8.23;;;-3.30;99.90;;;;;;4938471;29;20040;-82
2022/03/07 07:19:43;;;;;;;19.90;8.23;;;-2.90;99.90;;;;;;4939041;29;20034;-81
2022/03/07 07:22:09;;;;;;;19.48;9.27;;;-3.50;99.90;;;;;;4955235;29;20039;-84
2022/03/07 07:24:35;;;;;;;21.77;8.70;;;-2.90;99.90;;;;;;4937177;29;20404;-81
2022/03/07 07:27:01;;;;;;;19.05;8.07;;;-3.00;99.90;;;;;;4936492;29;20027;-82
2022/03/07 07:29:27;;;;;;;13.73;7.68;;;-3.30;99.90;;;;;;4937834;29;20035;-82
2022/03/07 07:31:53;;;;;;;20.08;9.25;;;-3.20;99.90;;;;;;4939543;29;20036;-85
2022/03/07 07:34:20;;;;;;;22.95;9.98;;;-2.40;99.90;;;;;;4939510;29;20117;-84
2022/03/07 07:36:46;;;;;;;17.95;9.95;;;-2.20;99.90;;;;;;4959593;29;20028;-82
2022/03/07 07:39:11;;;;;;;16.35;8.70;;;-2.80;99.90;;;;;;4960810;29;20051;-81
2022/03/07 07:41:37;;;;;;;16.70;8.93;;;-2.60;99.90;;;;;;4957309;29;20095;-82
2022/03/07 07:44:03;;;;;;;17.60;8.27;;;-2.60;99.90;;;;;;4956742;29;20031;-81
2022/03/07 07:46:29;;;;;;;20.33;8.65;;;-2.50;99.90;;;;;;4957311;28;20035;-81
2022/03/07 07:48:55;;;;;;;19.23;9.82;;;-2.50;99.90;;;;;;4957051;29;20032;-82
2022/03/07 07:51:21;;;;;;;20.73;8.65;;;-2.40;99.90;;;;;;4959159;29;20126;-81
2022/03/07 07:53:46;;;;;;;17.98;8.00;;;-1.20;99.90;;;;;;4957979;29;20039;-81
2022/03/07 07:56:12;;;;;;;22.30;10.50;;;-1.90;99.90;;;;;;4942849;29;20020;-81
2022/03/07 07:58:38;;;;;;;17.55;8.48;;;-1.90;99.90;;;;;;4941688;29;20033;-81
2022/03/07 08:01:04;;;;;;;22.38;9.75;;;-1.50;99.90;;;;;;4957286;29;20437;-82
2022/03/07 08:03:30;;;;;;;16.73;7.57;;;-1.50;99.90;;;;;;4959031;29;20032;-81
2022/03/07 08:05:57;;;;;;;19.20;8.18;;;-1.30;99.90;;;;;;4956587;29;20125;-81
2022/03/07 08:08:23;;;;;;;25.67;13.80;;;-1.10;99.90;;;;;;4936639;29;20473;-82
2022/03/07 08:10:49;;;;;;;20.50;9.65;;;-1.00;99.90;;;;;;4943833;29;20027;-83
2022/03/07 08:13:14;;;;;;;15.77;9.32;;;-0.90;99.90;;;;;;4943495;29;20035;-86
2022/03/07 08:15:40;;;;;;;16.25;8.98;;;-0.90;99.90;;;;;;4961515;29;20492;-80
2022/03/07 08:18:07;;;;;;;16.33;8.27;;;-0.80;99.90;;;;;;4961065;29;20656;-83
2022/03/07 08:20:34;;;;;;;12.50;7.68;;;-0.70;99.90;;;;;;4967470;29;20047;-81
2022/03/07 08:23:00;;;;;;;19.05;9.23;;;-0.40;99.90;;;;;;4965433;29;20074;-81
2022/03/07 08:25:26;;;;;;;16.10;7.80;;;-0.30;99.90;;;;;;4977912;23;20035;-80
2022/03/07 08:27:53;;;;;;;15.02;7.80;;;-0.30;99.90;;;;;;4907133;29;20041;-79
2022/03/07 08:30:22;;;;;;;11.77;7.63;;;-0.30;99.90;;;;;;4896171;29;20028;-79
2022/03/07 08:32:47;;;;;;;15.18;8.45;;;-0.10;99.90;;;;;;4899398;29;20580;-83
2022/03/07 08:35:14;;;;;;;14.95;8.23;;;-0.20;99.90;;;;;;4877308;29;20039;-78
2022/03/07 08:37:44;;;;;;;18.42;9.52;;;-0.30;99.90;;;;;;4874850;29;20154;-80
2022/03/07 08:40:10;;;;;;;17.48;9.55;;;-0.30;99.90;;;;;;4873701;29;20028;-78
2022/03/07 08:42:36;;;;;;;14.68;8.15;;;-0.40;99.90;;;;;;4875315;29;20048;-79
2022/03/07 08:45:06;;;;;;;19.58;8.93;;;-0.20;99.90;;;;;;4874040;29;20044;-79
2022/03/07 08:47:37;;;;;;;18.73;8.70;;;-0.20;99.90;;;;;;4893378;29;20132;-89
2022/03/07 08:50:05;;;;;;;20.95;8.32;;;-0.20;99.90;;;;;;4909288;28;20108;-82
2022/03/07 08:52:31;;;;;;;19.52;9.15;;;0.10;99.90;;;;;;4882474;29;20036;-83
2022/03/07 08:54:58;;;;;;;17.88;8.85;;;-1.10;99.90;;;;;;4897589;29;20221;-82
2022/03/07 08:57:25;;;;;;;21.13;10.80;;;0.00;99.90;;;;;;4890143;29;20029;-82
2022/03/07 08:59:51;;;;;;;16.83;10.15;;;1.90;99.90;;;;;;4892644;29;20029;-82
2022/03/07 09:02:16;;;;;;;21.45;9.63;;;-1.30;99.90;;;;;;4896017;29;20063;-78
2022/03/07 09:04:42;;;;;;;20.38;9.25;;;0.00;99.90;;;;;;4890781;29;20040;-82
2022/03/07 09:07:09;;;;;;;15.30;9.02;;;0.00;99.90;;;;;;4882505;29;20025;-84
2022/03/07 09:09:37;;;;;;;15.80;9.90;;;0.10;99.90;;;;;;4881511;29;20029;-87
2022/03/07 09:12:04;;;;;;;17.42;8.88;;;0.10;99.90;;;;;;4887267;29;20041;-87
2022/03/07 09:14:31;;;;;;;20.25;8.82;;;0.20;99.90;;;;;;4895591;29;20029;-80
2022/03/07 09:16:57;;;;;;;25.50;11.07;;;0.20;99.90;;;;;;4865539;29;20041;-83
2022/03/07 09:19:23;;;;;;;22.02;8.35;;;0.40;99.90;;;;;;4884461;29;20359;-87
2022/03/07 09:21:49;;;;;;;16.42;8.70;;;0.40;99.80;;;;;;4902192;28;20074;-85
2022/03/07 09:24:15;;;;;;;18.02;8.45;;;0.50;99.90;;;;;;4877474;29;20081;-87
2022/03/07 09:26:41;;;;;;;17.95;9.07;;;0.60;99.90;;;;;;4876208;29;20053;-84
2022/03/07 09:29:06;;;;;;;18.75;9.15;;;1.00;99.90;;;;;;4877301;29;20032;-82
2022/03/07 09:31:32;;;;;;;18.70;9.85;;;0.70;97.90;;;;;;4876385;29;20037;-83
2022/03/07 09:33:58;;;;;;;19.52;9.63;;;0.80;98.30;;;;;;4874913;29;20040;-81
2022/03/07 09:36:24;;;;;;;20.60;8.82;;;0.80;98.40;;;;;;4890136;29;20498;-82
2022/03/07 09:38:50;;;;;;;17.45;8.35;;;1.00;97.10;;;;;;4874711;29;20073;-81
2022/03/07 09:41:20;;;;;;;17.38;9.23;;;1.10;96.40;;;;;;4874451;29;20029;-86
2022/03/07 09:43:46;;;;;;;;;;;1.00;95.90;;;;;;4881511;29;20101;-80
2022/03/07 09:46:14;;;;;;;23.60;10.25;;;1.00;97.40;;;;;;4893910;29;19911;-80
2022/03/07 09:48:41;;;;;;;15.48;8.68;;;1.00;96.20;;;;;;4877216;29;20032;-90
2022/03/07 09:51:08;;;;;;;13.20;8.02;;;1.00;97.10;;;;;;4901608;29;20029;-85
2022/03/07 09:53:34;;;;;;;17.95;9.77;;;1.10;96.50;;;;;;4878706;29;20029;-93
2022/03/07 09:56:00;;;;;;;21.75;10.45;;;1.20;97.60;;;;;;4879434;29;20097;-87
2022/03/07 09:58:26;;;;;;;15.27;9.18;;;0.20;94.70;;;;;;4882390;29;20040;-92
2022/03/07 10:00:52;;;;;;;15.60;8.20;;;1.50;95.90;;;;;;4877593;29;20053;-91
2022/03/07 10:03:18;;;;;;;18.65;8.27;;;1.50;95.00;;;;;;4889036;29;20048;-80
2022/03/07 10:05:49;;;;;;;16.90;9.05;;;1.70;94.20;;;;;;4891289;29;20040;-81
2022/03/07 10:08:26;;;;;;;16.35;8.05;;;1.70;93.10;;;;;;4878486;29;20116;-80
2022/03/07 10:10:52;;;;;;;23.65;10.25;;;1.60;93.10;;;;;;4882482;29;20053;-84
2022/03/07 10:13:20;;;;;;;16.13;9.15;;;1.50;93.30;;;;;;4882352;29;20033;-79
2022/03/07 10:15:58;;;;;;;20.17;9.32;;;1.60;93.80;;;;;;4883375;29;20044;-80
2022/03/07 10:18:23;;;;;;;18.98;9.50;;;1.80;92.70;;;;;;4877636;29;20173;-79
2022/03/07 10:20:54;;;;;;;18.63;9.23;;;1.70;92.80;;;;;;4877350;29;20048;-79
2022/03/07 10:23:22;;;;;;;22.63;9.23;;;1.80;92.40;;;;;;4877073;29;20036;-81
2022/03/07 10:25:48;;;;;;;15.98;8.00;;;1.90;92.40;;;;;;4876299;29;20053;-79
2022/03/07 10:28:14;;;;;;;19.35;10.00;;;1.90;91.40;;;;;;4890739;29;20182;-79
2022/03/07 10:30:40;;;;;;;20.02;8.05;;;2.00;93.20;;;;;;4891731;29;20033;-78
2022/03/07 10:33:13;;;;;;;18.75;9.20;;;2.00;90.90;;;;;;4876432;29;20041;-80
2022/03/07 10:35:43;;;;;;;22.67;9.30;;;2.00;90.30;;;;;;4889898;29;20447;-79
2022/03/07 10:38:18;;;;;;;17.73;9.98;;;2.10;91.50;;;;;;4889816;29;20045;-78
2022/03/07 10:40:52;;;;;;;16.63;9.20;;;2.10;90.30;;;;;;4875679;29;20073;-78
2022/03/07 10:43:19;;;;;;;20.23;8.43;;;2.10;90.50;;;;;;4890168;29;20057;-80
2022/03/07 10:45:45;;;;;;;16.13;9.10;;;2.10;90.10;;;;;;4875679;29;20033;-80
2022/03/07 10:48:11;;;;;;;20.45;11.38;;;2.20;90.60;;;;;;4874070;29;20799;-78
2022/03/07 10:50:36;;;;;;;17.63;9.75;;;2.30;89.70;;;;;;4874278;29;20084;-80
2022/03/07 10:53:06;;;;;;;15.85;8.93;;;2.30;88.80;;;;;;4890097;29;20048;-78
2022/03/07 10:55:33;;;;;;;15.85;9.55;;;2.50;90.10;;;;;;4889753;29;20040;-79
2022/03/07 10:58:10;;;;;;;19.98;9.55;;;2.60;87.90;;;;;;4875920;29;20037;-79
2022/03/07 11:00:59;;;;;;;16.35;9.48;;;2.70;87.60;;;;;;4891115;29;20148;-79
2022/03/07 11:03:30;;;;;;;16.45;9.23;;;2.90;86.30;;;;;;4875353;29;20033;-78
2022/03/07 11:05:58;;;;;;;17.73;8.95;;;3.00;85.50;;;;;;4875621;29;20039;-79
2022/03/07 11:08:24;;;;;;;14.98;9.18;;;2.90;84.40;;;;;;4876373;29;20388;-78
2022/03/07 11:10:52;;;;;;;16.17;8.20;;;3.00;84.70;;;;;;4876905;29;20029;-79
2022/03/07 11:13:19;;;;;;;16.80;9.30;;;3.00;82.90;;;;;;4876304;29;20419;-80
2022/03/07 11:15:46;;;;;;;18.75;9.43;;;3.00;83.60;;;;;;4875707;29;20569;-82
2022/03/07 11:18:14;;;;;;;15.18;8.40;;;3.00;84.60;;;;;;4877506;29;20033;-84
2022/03/07 11:20:42;;;;;;;20.42;9.70;;;3.00;83.60;;;;;;4877516;29;20119;-80
2022/03/07 11:23:11;;;;;;;13.80;9.02;;;2.90;83.50;;;;;;4890501;29;20041;-82
2022/03/07 11:25:41;;;;;;;17.85;9.23;;;3.10;83.70;;;;;;4855990;29;20030;-79
2022/03/07 11:28:07;;;;;;;14.38;9.07;;;3.10;82.70;;;;;;4888711;29;20033;-81
2022/03/07 11:30:51;;;;;;;12.88;7.40;;;3.00;82.50;;;;;;4877764;29;20014;-77
2022/03/07 11:33:21;;;;;;;19.55;9.65;;;3.40;83.50;;;;;;4891959;29;20038;-80
2022/03/07 11:35:50;;;;;;;16.77;9.13;;;3.10;83.90;;;;;;4878414;29;20021;-81
2022/03/07 11:38:31;;;;;;;15.48;8.40;;;3.30;84.40;;;;;;4878573;29;20052;-79
2022/03/07 11:41:12;;;;;;;22.23;11.43;;;3.30;82.20;;;;;;4892135;29;20311;-85
2022/03/07 11:44:15;;;;;;;16.25;8.52;;;3.30;83.20;;;;;;4876487;29;20034;-88
2022/03/07 11:46:51;;;;;;;21.67;9.90;;;3.30;81.70;;;;;;4873494;29;20022;-80
2022/03/07 11:49:26;;;;;;;18.13;8.63;;;3.30;81.70;;;;;;4874258;29;20044;-84
2022/03/07 11:51:58;;;;;;;23.05;10.10;;;3.40;81.20;;;;;;4877880;29;20038;-83
2022/03/07 11:54:24;;;;;;;19.83;8.48;;;3.30;80.80;;;;;;4872946;29;20104;-79
2022/03/07 11:56:49;;;;;;;16.95;9.45;;;3.20;80.30;;;;;;4868129;29;20036;-79
2022/03/07 11:59:15;;;;;;;19.35;8.80;;;3.40;81.90;;;;;;4869958;29;20029;-78
2022/03/07 12:01:52;;;;;;;16.73;8.93;;;3.50;79.80;;;;;;4881359;29;20323;-78
2022/03/07 12:04:18;;;;;;;29.27;10.45;;;3.70;81.20;;;;;;4879033;29;20025;-80
2022/03/07 12:06:50;;;;;;;22.83;10.65;;;3.80;79.90;;;;;;4860425;29;20049;-80
2022/03/07 12:09:28;;;;;;;17.52;9.30;;;3.70;79.30;;;;;;4884730;29;20032;-78
2022/03/07 12:12:20;;;;;;;19.70;9.63;;;3.90;79.00;;;;;;4875305;29;20650;-79
2022/03/07 12:14:47;;;;;;;22.98;9.90;;;4.00;78.20;;;;;;4871456;29;20069;-78
2022/03/07 12:17:23;;;;;;;22.45;10.07;;;4.00;77.50;;;;;;4889615;29;20032;-79
2022/03/07 12:19:56;;;;;;;18.30;10.60;;;4.00;77.80;;;;;;4873693;29;20029;-78
2022/03/07 12:22:24;;;;;;;15.23;10.07;;;4.10;76.20;;;;;;4873764;29;20060;-78
2022/03/07 12:24:53;;;;;;;18.08;9.20;;;4.20;75.70;;;;;;4889490;29;20059;-78
2022/03/07 12:27:18;;;;;;;19.13;11.23;;;4.30;75.00;;;;;;4888609;29;20056;-78
2022/03/07 12:29:44;;;;;;;20.55;10.07;;;4.90;76.90;;;;;;4888642;29;20028;-83
2022/03/07 12:32:11;;;;;;;19.50;8.63;;;5.60;74.40;;;;;;4874689;29;20033;-77
2022/03/07 12:34:43;;;;;;;21.17;9.02;;;6.00;71.90;;;;;;4889902;29;20490;-78
2022/03/07 12:37:20;;;;;;;14.60;8.52;;;6.10;69.80;;;;;;4889882;29;20033;-79
2022/03/07 12:39:53;;;;;;;17.15;8.80;;;6.40;68.20;;;;;;4889161;29;20029;-78